sensor_id;sensor_type;location;lat;lon;timestamp;P1;durP1;ratioP1;P2;durP2;ratioP2
83495;SDS011;73431;40.794;43.836;2024-01-07T00:01:55;6.18;;;3.28;;
83495;SDS011;73431;40.794;43.836;2024-01-07T00:04:24;6.10;;;3.70;;
83495;SDS011;73431;40.794;43.836;2024-01-07T00:06:51;7.80;;;3.45;;
83495;SDS011;73431;40.794;43.836;2024-01-07T00:09:19;10.40;;;4.28;;
83495;SDS011;73431;40.794;43.836;2024-01-07T00:11:46;9.10;;;4.10;;
83495;SDS011;73431;40.794;43.836;2024-01-07T00:14:14;9.05;;;3.80;;
83495;SDS011;73431;40.794;43.836;2024-01-07T00:16:42;11.27;;;3.70;;
83495;SDS011;73431;40.794;43.836;2024-01-07T00:19:10;8.23;;;2.75;;
83495;SDS011;73431;40.794;43.836;2024-01-07T00:21:38;12.07;;;4.32;;
83495;SDS011;73431;40.794;43.836;2024-01-07T00:24:05;8.27;;;3.75;;
83495;SDS011;73431;40.794;43.836;2024-01-07T00:26:34;10.25;;;3.88;;
83495;SDS011;73431;40.794;43.836;2024-01-07T00:29:02;6.70;;;2.80;;
83495;SDS011;73431;40.794;43.836;2024-01-07T00:31:30;12.80;;;3.15;;
83495;SDS011;73431;40.794;43.836;2024-01-07T00:33:58;19.30;;;5.10;;
83495;SDS011;73431;40.794;43.836;2024-01-07T00:36:26;12.35;;;3.55;;
83495;SDS011;73431;40.794;43.836;2024-01-07T00:38:53;8.80;;;3.08;;
83495;SDS011;73431;40.794;43.836;2024-01-07T00:41:21;6.22;;;3.58;;
83495;SDS011;73431;40.794;43.836;2024-01-07T00:43:48;6.63;;;3.30;;
83495;SDS011;73431;40.794;43.836;2024-01-07T00:46:16;6.40;;;2.67;;
83495;SDS011;73431;40.794;43.836;2024-01-07T00:48:44;9.93;;;3.47;;
83495;SDS011;73431;40.794;43.836;2024-01-07T00:51:11;7.93;;;3.55;;
83495;SDS011;73431;40.794;43.836;2024-01-07T00:53:39;11.18;;;3.75;;
83495;SDS011;73431;40.794;43.836;2024-01-07T00:56:07;11.00;;;5.20;;
83495;SDS011;73431;40.794;43.836;2024-01-07T00:58:38;8.63;;;3.67;;
83495;SDS011;73431;40.794;43.836;2024-01-07T01:01:06;13.00;;;5.50;;
83495;SDS011;73431;40.794;43.836;2024-01-07T01:03:35;11.98;;;4.95;;
83495;SDS011;73431;40.794;43.836;2024-01-07T01:06:03;14.05;;;5.32;;
83495;SDS011;73431;40.794;43.836;2024-01-07T01:08:31;18.88;;;4.63;;
83495;SDS011;73431;40.794;43.836;2024-01-07T01:10:59;9.43;;;4.20;;
83495;SDS011;73431;40.794;43.836;2024-01-07T01:13:26;9.68;;;3.67;;
83495;SDS011;73431;40.794;43.836;2024-01-07T01:15:53;10.65;;;4.95;;
83495;SDS011;73431;40.794;43.836;2024-01-07T01:18:22;8.57;;;3.50;;
83495;SDS011;73431;40.794;43.836;2024-01-07T01:20:50;8.38;;;4.00;;
83495;SDS011;73431;40.794;43.836;2024-01-07T01:23:18;12.93;;;3.65;;
83495;SDS011;73431;40.794;43.836;2024-01-07T01:25:46;8.18;;;2.97;;
83495;SDS011;73431;40.794;43.836;2024-01-07T01:28:14;3.78;;;2.17;;
83495;SDS011;73431;40.794;43.836;2024-01-07T01:30:41;5.00;;;2.47;;
83495;SDS011;73431;40.794;43.836;2024-01-07T01:33:09;5.38;;;2.25;;
83495;SDS011;73431;40.794;43.836;2024-01-07T01:35:37;7.28;;;2.17;;
83495;SDS011;73431;40.794;43.836;2024-01-07T01:38:05;5.65;;;2.13;;
83495;SDS011;73431;40.794;43.836;2024-01-07T01:40:32;3.15;;;1.40;;
83495;SDS011;73431;40.794;43.836;2024-01-07T01:43:01;3.20;;;1.50;;
83495;SDS011;73431;40.794;43.836;2024-01-07T01:45:29;2.45;;;1.52;;
83495;SDS011;73431;40.794;43.836;2024-01-07T01:47:57;3.53;;;1.73;;
83495;SDS011;73431;40.794;43.836;2024-01-07T01:50:25;7.20;;;1.80;;
83495;SDS011;73431;40.794;43.836;2024-01-07T01:52:54;3.92;;;2.08;;
83495;SDS011;73431;40.794;43.836;2024-01-07T01:55:23;5.55;;;2.13;;
83495;SDS011;73431;40.794;43.836;2024-01-07T02:00:20;5.18;;;2.30;;
83495;SDS011;73431;40.794;43.836;2024-01-07T02:02:48;21.08;;;2.38;;
83495;SDS011;73431;40.794;43.836;2024-01-07T02:05:16;5.68;;;1.95;;
83495;SDS011;73431;40.794;43.836;2024-01-07T02:07:44;5.07;;;2.30;;
83495;SDS011;73431;40.794;43.836;2024-01-07T02:10:12;9.18;;;2.53;;
83495;SDS011;73431;40.794;43.836;2024-01-07T02:12:40;4.18;;;1.70;;
83495;SDS011;73431;40.794;43.836;2024-01-07T02:15:08;6.28;;;1.58;;
83495;SDS011;73431;40.794;43.836;2024-01-07T02:17:36;3.35;;;1.83;;
83495;SDS011;73431;40.794;43.836;2024-01-07T02:20:03;6.32;;;1.83;;
83495;SDS011;73431;40.794;43.836;2024-01-07T02:22:31;5.00;;;2.55;;
83495;SDS011;73431;40.794;43.836;2024-01-07T02:24:59;3.00;;;1.77;;
83495;SDS011;73431;40.794;43.836;2024-01-07T02:27:28;4.35;;;1.92;;
83495;SDS011;73431;40.794;43.836;2024-01-07T02:29:56;6.25;;;1.70;;
83495;SDS011;73431;40.794;43.836;2024-01-07T02:32:24;4.75;;;2.25;;
83495;SDS011;73431;40.794;43.836;2024-01-07T02:34:51;4.57;;;1.92;;
83495;SDS011;73431;40.794;43.836;2024-01-07T02:37:19;7.60;;;2.47;;
83495;SDS011;73431;40.794;43.836;2024-01-07T02:39:47;5.15;;;2.33;;
83495;SDS011;73431;40.794;43.836;2024-01-07T02:42:28;5.03;;;2.35;;
83495;SDS011;73431;40.794;43.836;2024-01-07T02:44:57;10.98;;;2.75;;
83495;SDS011;73431;40.794;43.836;2024-01-07T02:47:25;7.85;;;3.45;;
83495;SDS011;73431;40.794;43.836;2024-01-07T02:49:55;8.93;;;3.72;;
83495;SDS011;73431;40.794;43.836;2024-01-07T02:52:22;7.50;;;4.45;;
83495;SDS011;73431;40.794;43.836;2024-01-07T02:54:50;12.57;;;4.78;;
83495;SDS011;73431;40.794;43.836;2024-01-07T02:57:18;13.82;;;4.47;;
83495;SDS011;73431;40.794;43.836;2024-01-07T02:59:46;11.60;;;3.75;;
83495;SDS011;73431;40.794;43.836;2024-01-07T03:02:14;10.38;;;4.53;;
83495;SDS011;73431;40.794;43.836;2024-01-07T03:04:42;5.47;;;2.55;;
83495;SDS011;73431;40.794;43.836;2024-01-07T03:07:10;4.93;;;2.97;;
83495;SDS011;73431;40.794;43.836;2024-01-07T03:09:38;9.82;;;3.88;;
83495;SDS011;73431;40.794;43.836;2024-01-07T03:12:05;9.75;;;3.63;;
83495;SDS011;73431;40.794;43.836;2024-01-07T03:14:33;6.18;;;2.85;;
83495;SDS011;73431;40.794;43.836;2024-01-07T03:17:01;11.68;;;3.58;;
83495;SDS011;73431;40.794;43.836;2024-01-07T03:19:28;6.95;;;3.33;;
83495;SDS011;73431;40.794;43.836;2024-01-07T03:21:56;7.25;;;2.72;;
83495;SDS011;73431;40.794;43.836;2024-01-07T03:24:25;11.48;;;3.72;;
83495;SDS011;73431;40.794;43.836;2024-01-07T03:26:53;7.53;;;2.67;;
83495;SDS011;73431;40.794;43.836;2024-01-07T03:29:20;8.48;;;3.47;;
83495;SDS011;73431;40.794;43.836;2024-01-07T03:31:48;10.23;;;3.67;;
83495;SDS011;73431;40.794;43.836;2024-01-07T03:34:16;10.65;;;3.63;;
83495;SDS011;73431;40.794;43.836;2024-01-07T03:36:44;12.07;;;3.58;;
83495;SDS011;73431;40.794;43.836;2024-01-07T03:39:12;8.18;;;3.28;;
83495;SDS011;73431;40.794;43.836;2024-01-07T03:41:40;7.93;;;4.05;;
83495;SDS011;73431;40.794;43.836;2024-01-07T03:44:08;11.48;;;2.95;;
83495;SDS011;73431;40.794;43.836;2024-01-07T03:49:03;7.70;;;2.80;;
83495;SDS011;73431;40.794;43.836;2024-01-07T03:53:59;5.93;;;2.50;;
83495;SDS011;73431;40.794;43.836;2024-01-07T03:56:27;7.30;;;3.05;;
83495;SDS011;73431;40.794;43.836;2024-01-07T03:58:55;5.95;;;3.30;;
83495;SDS011;73431;40.794;43.836;2024-01-07T04:01:22;10.88;;;3.88;;
83495;SDS011;73431;40.794;43.836;2024-01-07T04:03:50;7.22;;;3.33;;
83495;SDS011;73431;40.794;43.836;2024-01-07T04:06:19;4.13;;;2.90;;
83495;SDS011;73431;40.794;43.836;2024-01-07T04:08:47;5.63;;;3.50;;
83495;SDS011;73431;40.794;43.836;2024-01-07T04:13:42;9.75;;;2.63;;
83495;SDS011;73431;40.794;43.836;2024-01-07T04:16:19;5.07;;;3.03;;
83495;SDS011;73431;40.794;43.836;2024-01-07T04:18:47;5.45;;;2.65;;
83495;SDS011;73431;40.794;43.836;2024-01-07T04:21:20;5.03;;;2.92;;
83495;SDS011;73431;40.794;43.836;2024-01-07T04:23:48;7.40;;;3.60;;
83495;SDS011;73431;40.794;43.836;2024-01-07T04:26:16;7.25;;;3.75;;
83495;SDS011;73431;40.794;43.836;2024-01-07T04:28:44;8.77;;;3.83;;
83495;SDS011;73431;40.794;43.836;2024-01-07T04:31:11;34.17;;;4.65;;
83495;SDS011;73431;40.794;43.836;2024-01-07T04:33:39;22.10;;;4.05;;
83495;SDS011;73431;40.794;43.836;2024-01-07T04:36:07;9.23;;;5.53;;
83495;SDS011;73431;40.794;43.836;2024-01-07T04:38:34;12.63;;;6.47;;
83495;SDS011;73431;40.794;43.836;2024-01-07T04:41:02;18.98;;;7.03;;
83495;SDS011;73431;40.794;43.836;2024-01-07T04:43:30;19.45;;;10.88;;
83495;SDS011;73431;40.794;43.836;2024-01-07T04:45:58;20.60;;;11.18;;
83495;SDS011;73431;40.794;43.836;2024-01-07T04:48:25;18.27;;;9.40;;
83495;SDS011;73431;40.794;43.836;2024-01-07T04:50:53;16.45;;;9.38;;
83495;SDS011;73431;40.794;43.836;2024-01-07T04:53:21;20.50;;;9.13;;
83495;SDS011;73431;40.794;43.836;2024-01-07T04:55:49;19.13;;;9.98;;
83495;SDS011;73431;40.794;43.836;2024-01-07T04:58:16;17.73;;;8.85;;
83495;SDS011;73431;40.794;43.836;2024-01-07T05:00:44;15.40;;;8.35;;
83495;SDS011;73431;40.794;43.836;2024-01-07T05:03:12;18.80;;;9.30;;
83495;SDS011;73431;40.794;43.836;2024-01-07T05:05:40;16.48;;;9.82;;
83495;SDS011;73431;40.794;43.836;2024-01-07T05:08:08;16.40;;;9.00;;
83495;SDS011;73431;40.794;43.836;2024-01-07T05:10:36;18.85;;;9.88;;
83495;SDS011;73431;40.794;43.836;2024-01-07T05:13:04;18.38;;;9.05;;
83495;SDS011;73431;40.794;43.836;2024-01-07T05:15:33;23.27;;;10.15;;
83495;SDS011;73431;40.794;43.836;2024-01-07T05:20:29;37.53;;;17.13;;
83495;SDS011;73431;40.794;43.836;2024-01-07T05:22:57;33.53;;;14.48;;
83495;SDS011;73431;40.794;43.836;2024-01-07T05:25:25;33.20;;;16.98;;
83495;SDS011;73431;40.794;43.836;2024-01-07T05:27:52;45.33;;;18.92;;
83495;SDS011;73431;40.794;43.836;2024-01-07T05:30:21;37.63;;;17.08;;
83495;SDS011;73431;40.794;43.836;2024-01-07T05:32:49;38.78;;;18.05;;
83495;SDS011;73431;40.794;43.836;2024-01-07T05:35:17;44.53;;;18.38;;
83495;SDS011;73431;40.794;43.836;2024-01-07T05:37:45;39.45;;;19.13;;
83495;SDS011;73431;40.794;43.836;2024-01-07T05:40:13;36.72;;;18.75;;
83495;SDS011;73431;40.794;43.836;2024-01-07T05:42:41;35.95;;;13.70;;
83495;SDS011;73431;40.794;43.836;2024-01-07T05:45:08;39.28;;;14.60;;
83495;SDS011;73431;40.794;43.836;2024-01-07T05:47:36;27.88;;;11.45;;
83495;SDS011;73431;40.794;43.836;2024-01-07T05:50:04;18.88;;;8.98;;
83495;SDS011;73431;40.794;43.836;2024-01-07T05:52:32;16.30;;;8.35;;
83495;SDS011;73431;40.794;43.836;2024-01-07T05:55:00;16.98;;;8.20;;
83495;SDS011;73431;40.794;43.836;2024-01-07T05:57:29;19.17;;;8.55;;
83495;SDS011;73431;40.794;43.836;2024-01-07T05:59:57;18.40;;;8.95;;
83495;SDS011;73431;40.794;43.836;2024-01-07T06:02:25;22.60;;;9.32;;
83495;SDS011;73431;40.794;43.836;2024-01-07T06:04:53;21.23;;;8.77;;
83495;SDS011;73431;40.794;43.836;2024-01-07T06:07:21;19.08;;;7.70;;
83495;SDS011;73431;40.794;43.836;2024-01-07T06:09:49;16.35;;;7.07;;
83495;SDS011;73431;40.794;43.836;2024-01-07T06:12:17;12.07;;;6.70;;
83495;SDS011;73431;40.794;43.836;2024-01-07T06:14:45;14.48;;;7.75;;
83495;SDS011;73431;40.794;43.836;2024-01-07T06:17:13;15.70;;;6.00;;
83495;SDS011;73431;40.794;43.836;2024-01-07T06:19:41;20.35;;;7.07;;
83495;SDS011;73431;40.794;43.836;2024-01-07T06:22:09;16.05;;;5.55;;
83495;SDS011;73431;40.794;43.836;2024-01-07T06:24:37;13.73;;;6.15;;
83495;SDS011;73431;40.794;43.836;2024-01-07T06:27:04;23.52;;;8.25;;
83495;SDS011;73431;40.794;43.836;2024-01-07T06:32:01;30.77;;;14.50;;
83495;SDS011;73431;40.794;43.836;2024-01-07T06:34:30;38.83;;;15.25;;
83495;SDS011;73431;40.794;43.836;2024-01-07T06:36:59;22.95;;;10.77;;
83495;SDS011;73431;40.794;43.836;2024-01-07T06:39:27;24.58;;;9.48;;
83495;SDS011;73431;40.794;43.836;2024-01-07T06:41:55;29.05;;;11.73;;
83495;SDS011;73431;40.794;43.836;2024-01-07T06:44:22;32.50;;;11.65;;
83495;SDS011;73431;40.794;43.836;2024-01-07T06:46:50;21.50;;;10.43;;
83495;SDS011;73431;40.794;43.836;2024-01-07T06:49:18;22.25;;;10.15;;
83495;SDS011;73431;40.794;43.836;2024-01-07T06:51:46;20.60;;;8.88;;
83495;SDS011;73431;40.794;43.836;2024-01-07T06:54:14;17.48;;;9.52;;
83495;SDS011;73431;40.794;43.836;2024-01-07T06:56:42;18.73;;;9.68;;
83495;SDS011;73431;40.794;43.836;2024-01-07T06:59:10;24.30;;;8.80;;
83495;SDS011;73431;40.794;43.836;2024-01-07T07:01:39;16.83;;;8.35;;
83495;SDS011;73431;40.794;43.836;2024-01-07T07:04:07;18.30;;;9.10;;
83495;SDS011;73431;40.794;43.836;2024-01-07T07:06:35;15.82;;;8.27;;
83495;SDS011;73431;40.794;43.836;2024-01-07T07:09:03;14.73;;;7.75;;
83495;SDS011;73431;40.794;43.836;2024-01-07T07:11:31;21.75;;;10.90;;
83495;SDS011;73431;40.794;43.836;2024-01-07T07:14:00;29.55;;;11.07;;
83495;SDS011;73431;40.794;43.836;2024-01-07T07:16:28;23.00;;;10.98;;
83495;SDS011;73431;40.794;43.836;2024-01-07T07:18:55;24.52;;;11.68;;
83495;SDS011;73431;40.794;43.836;2024-01-07T07:21:23;24.95;;;11.07;;
83495;SDS011;73431;40.794;43.836;2024-01-07T07:23:51;24.73;;;11.13;;
83495;SDS011;73431;40.794;43.836;2024-01-07T07:26:19;28.33;;;11.70;;
83495;SDS011;73431;40.794;43.836;2024-01-07T07:28:47;21.55;;;9.60;;
83495;SDS011;73431;40.794;43.836;2024-01-07T07:31:14;21.00;;;12.35;;
83495;SDS011;73431;40.794;43.836;2024-01-07T07:33:42;23.15;;;12.15;;
83495;SDS011;73431;40.794;43.836;2024-01-07T07:36:11;24.77;;;11.32;;
83495;SDS011;73431;40.794;43.836;2024-01-07T07:38:38;25.02;;;12.35;;
83495;SDS011;73431;40.794;43.836;2024-01-07T07:41:05;29.63;;;13.35;;
83495;SDS011;73431;40.794;43.836;2024-01-07T07:43:34;25.48;;;10.45;;
83495;SDS011;73431;40.794;43.836;2024-01-07T07:46:02;17.05;;;9.23;;
83495;SDS011;73431;40.794;43.836;2024-01-07T07:48:30;20.77;;;10.85;;
83495;SDS011;73431;40.794;43.836;2024-01-07T07:50:58;17.55;;;9.82;;
83495;SDS011;73431;40.794;43.836;2024-01-07T07:53:25;14.85;;;9.30;;
83495;SDS011;73431;40.794;43.836;2024-01-07T07:55:53;22.48;;;9.95;;
83495;SDS011;73431;40.794;43.836;2024-01-07T07:58:21;17.80;;;8.38;;
83495;SDS011;73431;40.794;43.836;2024-01-07T08:00:49;17.83;;;9.77;;
83495;SDS011;73431;40.794;43.836;2024-01-07T08:03:17;16.40;;;9.35;;
83495;SDS011;73431;40.794;43.836;2024-01-07T08:05:45;24.77;;;10.30;;
83495;SDS011;73431;40.794;43.836;2024-01-07T08:08:12;14.30;;;6.90;;
83495;SDS011;73431;40.794;43.836;2024-01-07T08:10:40;17.15;;;8.10;;
83495;SDS011;73431;40.794;43.836;2024-01-07T08:13:07;17.10;;;7.95;;
83495;SDS011;73431;40.794;43.836;2024-01-07T08:15:36;11.35;;;6.53;;
83495;SDS011;73431;40.794;43.836;2024-01-07T08:18:05;13.68;;;7.90;;
83495;SDS011;73431;40.794;43.836;2024-01-07T08:20:33;12.27;;;6.78;;
83495;SDS011;73431;40.794;43.836;2024-01-07T08:23:01;12.93;;;6.30;;
83495;SDS011;73431;40.794;43.836;2024-01-07T08:25:28;11.02;;;5.47;;
83495;SDS011;73431;40.794;43.836;2024-01-07T08:27:56;11.45;;;4.78;;
83495;SDS011;73431;40.794;43.836;2024-01-07T08:30:24;8.48;;;5.20;;
83495;SDS011;73431;40.794;43.836;2024-01-07T08:32:52;8.48;;;5.07;;
83495;SDS011;73431;40.794;43.836;2024-01-07T08:35:19;8.70;;;4.90;;
83495;SDS011;73431;40.794;43.836;2024-01-07T08:37:49;7.60;;;4.70;;
83495;SDS011;73431;40.794;43.836;2024-01-07T08:40:17;6.38;;;4.07;;
83495;SDS011;73431;40.794;43.836;2024-01-07T08:42:46;6.07;;;3.05;;
83495;SDS011;73431;40.794;43.836;2024-01-07T08:45:14;8.63;;;4.13;;
83495;SDS011;73431;40.794;43.836;2024-01-07T08:47:43;6.85;;;4.57;;
83495;SDS011;73431;40.794;43.836;2024-01-07T08:52:40;7.07;;;5.28;;
83495;SDS011;73431;40.794;43.836;2024-01-07T08:55:07;6.18;;;3.63;;
83495;SDS011;73431;40.794;43.836;2024-01-07T08:57:37;13.20;;;5.40;;
83495;SDS011;73431;40.794;43.836;2024-01-07T09:00:06;8.65;;;4.50;;
83495;SDS011;73431;40.794;43.836;2024-01-07T09:02:36;8.93;;;3.70;;
83495;SDS011;73431;40.794;43.836;2024-01-07T09:05:09;12.90;;;4.32;;
83495;SDS011;73431;40.794;43.836;2024-01-07T09:07:39;7.82;;;3.90;;
83495;SDS011;73431;40.794;43.836;2024-01-07T09:10:08;9.05;;;4.57;;
83495;SDS011;73431;40.794;43.836;2024-01-07T09:12:38;12.63;;;4.50;;
83495;SDS011;73431;40.794;43.836;2024-01-07T09:15:06;6.43;;;3.88;;
83495;SDS011;73431;40.794;43.836;2024-01-07T09:17:38;7.93;;;4.63;;
83495;SDS011;73431;40.794;43.836;2024-01-07T09:20:09;8.07;;;4.32;;
83495;SDS011;73431;40.794;43.836;2024-01-07T09:22:37;8.98;;;3.90;;
83495;SDS011;73431;40.794;43.836;2024-01-07T09:25:06;8.02;;;3.75;;
83495;SDS011;73431;40.794;43.836;2024-01-07T09:27:34;6.60;;;3.80;;
83495;SDS011;73431;40.794;43.836;2024-01-07T09:30:02;6.05;;;3.88;;
83495;SDS011;73431;40.794;43.836;2024-01-07T09:32:30;7.57;;;3.97;;
83495;SDS011;73431;40.794;43.836;2024-01-07T09:35:01;9.50;;;3.15;;
83495;SDS011;73431;40.794;43.836;2024-01-07T09:37:29;8.75;;;4.10;;
83495;SDS011;73431;40.794;43.836;2024-01-07T09:39:56;7.78;;;4.07;;
83495;SDS011;73431;40.794;43.836;2024-01-07T09:42:24;7.45;;;3.65;;
83495;SDS011;73431;40.794;43.836;2024-01-07T09:44:52;10.25;;;4.68;;
83495;SDS011;73431;40.794;43.836;2024-01-07T09:47:19;7.47;;;3.72;;
83495;SDS011;73431;40.794;43.836;2024-01-07T09:49:47;7.85;;;4.05;;
83495;SDS011;73431;40.794;43.836;2024-01-07T09:52:15;6.43;;;3.63;;
83495;SDS011;73431;40.794;43.836;2024-01-07T09:54:44;6.70;;;3.75;;
83495;SDS011;73431;40.794;43.836;2024-01-07T09:57:18;6.32;;;3.60;;
83495;SDS011;73431;40.794;43.836;2024-01-07T09:59:46;13.88;;;3.50;;
83495;SDS011;73431;40.794;43.836;2024-01-07T10:02:15;6.93;;;3.53;;
83495;SDS011;73431;40.794;43.836;2024-01-07T10:04:43;7.05;;;4.07;;
83495;SDS011;73431;40.794;43.836;2024-01-07T10:07:12;7.82;;;3.25;;
83495;SDS011;73431;40.794;43.836;2024-01-07T10:09:40;9.40;;;3.85;;
83495;SDS011;73431;40.794;43.836;2024-01-07T10:12:11;5.15;;;3.03;;
83495;SDS011;73431;40.794;43.836;2024-01-07T10:14:40;7.85;;;4.38;;
83495;SDS011;73431;40.794;43.836;2024-01-07T10:17:14;9.82;;;5.13;;
83495;SDS011;73431;40.794;43.836;2024-01-07T10:19:44;7.68;;;4.53;;
83495;SDS011;73431;40.794;43.836;2024-01-07T10:22:15;6.75;;;4.15;;
83495;SDS011;73431;40.794;43.836;2024-01-07T10:24:44;6.18;;;3.42;;
83495;SDS011;73431;40.794;43.836;2024-01-07T10:27:12;5.78;;;3.45;;
83495;SDS011;73431;40.794;43.836;2024-01-07T10:29:41;5.78;;;3.75;;
83495;SDS011;73431;40.794;43.836;2024-01-07T10:32:09;9.95;;;5.38;;
83495;SDS011;73431;40.794;43.836;2024-01-07T10:34:37;6.88;;;4.03;;
83495;SDS011;73431;40.794;43.836;2024-01-07T10:37:05;7.70;;;4.03;;
83495;SDS011;73431;40.794;43.836;2024-01-07T10:39:33;7.18;;;3.90;;
83495;SDS011;73431;40.794;43.836;2024-01-07T10:42:01;6.60;;;3.72;;
83495;SDS011;73431;40.794;43.836;2024-01-07T10:44:30;7.32;;;3.75;;
83495;SDS011;73431;40.794;43.836;2024-01-07T10:46:59;6.20;;;3.45;;
83495;SDS011;73431;40.794;43.836;2024-01-07T10:49:31;5.15;;;3.33;;
83495;SDS011;73431;40.794;43.836;2024-01-07T10:52:02;6.95;;;3.20;;
83495;SDS011;73431;40.794;43.836;2024-01-07T10:54:34;6.22;;;3.30;;
83495;SDS011;73431;40.794;43.836;2024-01-07T10:57:13;5.57;;;3.55;;
83495;SDS011;73431;40.794;43.836;2024-01-07T10:59:51;16.20;;;3.97;;
83495;SDS011;73431;40.794;43.836;2024-01-07T11:02:21;7.57;;;4.45;;
83495;SDS011;73431;40.794;43.836;2024-01-07T11:04:51;8.13;;;4.25;;
83495;SDS011;73431;40.794;43.836;2024-01-07T11:12:53;5.65;;;3.95;;
83495;SDS011;73431;40.794;43.836;2024-01-07T11:18:28;6.18;;;3.40;;
83495;SDS011;73431;40.794;43.836;2024-01-07T11:21:01;5.78;;;3.50;;
83495;SDS011;73431;40.794;43.836;2024-01-07T11:23:31;7.05;;;3.88;;
83495;SDS011;73431;40.794;43.836;2024-01-07T11:26:07;9.23;;;5.15;;
83495;SDS011;73431;40.794;43.836;2024-01-07T11:31:17;6.75;;;3.92;;
83495;SDS011;73431;40.794;43.836;2024-01-07T11:33:50;10.35;;;4.97;;
83495;SDS011;73431;40.794;43.836;2024-01-07T11:36:18;11.70;;;6.20;;
83495;SDS011;73431;40.794;43.836;2024-01-07T11:38:50;11.60;;;6.15;;
83495;SDS011;73431;40.794;43.836;2024-01-07T11:41:21;14.15;;;6.45;;
83495;SDS011;73431;40.794;43.836;2024-01-07T11:43:56;14.38;;;7.53;;
83495;SDS011;73431;40.794;43.836;2024-01-07T11:46:32;11.55;;;6.32;;
83495;SDS011;73431;40.794;43.836;2024-01-07T11:49:02;9.63;;;5.60;;
83495;SDS011;73431;40.794;43.836;2024-01-07T11:51:31;8.45;;;4.88;;
83495;SDS011;73431;40.794;43.836;2024-01-07T11:54:00;10.68;;;5.00;;
83495;SDS011;73431;40.794;43.836;2024-01-07T11:56:28;11.85;;;3.88;;
83495;SDS011;73431;40.794;43.836;2024-01-07T11:58:57;12.25;;;4.88;;
83495;SDS011;73431;40.794;43.836;2024-01-07T12:01:26;13.00;;;4.53;;
83495;SDS011;73431;40.794;43.836;2024-01-07T12:03:54;6.70;;;4.15;;
83495;SDS011;73431;40.794;43.836;2024-01-07T12:06:22;7.55;;;4.03;;
83495;SDS011;73431;40.794;43.836;2024-01-07T12:08:52;10.63;;;4.35;;
83495;SDS011;73431;40.794;43.836;2024-01-07T12:13:47;13.13;;;5.25;;
83495;SDS011;73431;40.794;43.836;2024-01-07T12:16:17;6.45;;;4.20;;
83495;SDS011;73431;40.794;43.836;2024-01-07T12:21:20;13.18;;;5.75;;
83495;SDS011;73431;40.794;43.836;2024-01-07T12:23:50;9.43;;;4.75;;
83495;SDS011;73431;40.794;43.836;2024-01-07T12:26:19;10.63;;;5.53;;
83495;SDS011;73431;40.794;43.836;2024-01-07T12:28:52;10.27;;;4.18;;
83495;SDS011;73431;40.794;43.836;2024-01-07T12:31:24;6.82;;;4.47;;
83495;SDS011;73431;40.794;43.836;2024-01-07T12:33:54;10.15;;;5.13;;
83495;SDS011;73431;40.794;43.836;2024-01-07T12:36:24;10.15;;;4.75;;
83495;SDS011;73431;40.794;43.836;2024-01-07T12:38:52;7.00;;;4.10;;
83495;SDS011;73431;40.794;43.836;2024-01-07T12:41:23;9.50;;;4.10;;
83495;SDS011;73431;40.794;43.836;2024-01-07T12:43:51;8.02;;;3.95;;
83495;SDS011;73431;40.794;43.836;2024-01-07T12:46:18;8.18;;;3.85;;
83495;SDS011;73431;40.794;43.836;2024-01-07T12:48:47;10.85;;;4.65;;
83495;SDS011;73431;40.794;43.836;2024-01-07T12:51:16;9.43;;;5.70;;
83495;SDS011;73431;40.794;43.836;2024-01-07T12:53:48;7.78;;;4.47;;
83495;SDS011;73431;40.794;43.836;2024-01-07T12:56:16;7.85;;;4.50;;
83495;SDS011;73431;40.794;43.836;2024-01-07T13:01:12;6.88;;;3.85;;
83495;SDS011;73431;40.794;43.836;2024-01-07T13:03:40;11.20;;;5.78;;
83495;SDS011;73431;40.794;43.836;2024-01-07T13:06:08;10.40;;;4.55;;
83495;SDS011;73431;40.794;43.836;2024-01-07T13:08:36;8.70;;;5.53;;
83495;SDS011;73431;40.794;43.836;2024-01-07T13:11:05;8.20;;;4.45;;
83495;SDS011;73431;40.794;43.836;2024-01-07T13:13:35;8.02;;;4.55;;
83495;SDS011;73431;40.794;43.836;2024-01-07T13:16:03;13.90;;;7.07;;
83495;SDS011;73431;40.794;43.836;2024-01-07T13:18:31;14.85;;;6.95;;
83495;SDS011;73431;40.794;43.836;2024-01-07T13:20:59;18.55;;;9.75;;
83495;SDS011;73431;40.794;43.836;2024-01-07T13:23:27;17.33;;;10.00;;
83495;SDS011;73431;40.794;43.836;2024-01-07T13:25:55;20.67;;;8.80;;
83495;SDS011;73431;40.794;43.836;2024-01-07T13:28:24;21.08;;;11.50;;
83495;SDS011;73431;40.794;43.836;2024-01-07T13:30:52;16.00;;;9.27;;
83495;SDS011;73431;40.794;43.836;2024-01-07T13:35:48;26.48;;;9.88;;
83495;SDS011;73431;40.794;43.836;2024-01-07T13:38:16;29.35;;;13.88;;
83495;SDS011;73431;40.794;43.836;2024-01-07T13:40:44;30.58;;;14.90;;
83495;SDS011;73431;40.794;43.836;2024-01-07T13:43:12;27.40;;;13.45;;
83495;SDS011;73431;40.794;43.836;2024-01-07T13:45:40;35.33;;;16.33;;
83495;SDS011;73431;40.794;43.836;2024-01-07T13:48:08;40.90;;;19.40;;
83495;SDS011;73431;40.794;43.836;2024-01-07T13:50:36;50.78;;;21.17;;
83495;SDS011;73431;40.794;43.836;2024-01-07T13:53:04;29.92;;;16.65;;
83495;SDS011;73431;40.794;43.836;2024-01-07T13:55:32;40.70;;;18.13;;
83495;SDS011;73431;40.794;43.836;2024-01-07T13:58:00;39.25;;;18.70;;
83495;SDS011;73431;40.794;43.836;2024-01-07T14:00:29;22.50;;;11.07;;
83495;SDS011;73431;40.794;43.836;2024-01-07T14:02:57;30.17;;;12.55;;
83495;SDS011;73431;40.794;43.836;2024-01-07T14:05:25;23.60;;;11.55;;
83495;SDS011;73431;40.794;43.836;2024-01-07T14:07:53;15.35;;;8.88;;
83495;SDS011;73431;40.794;43.836;2024-01-07T14:10:21;15.48;;;8.38;;
83495;SDS011;73431;40.794;43.836;2024-01-07T14:12:50;24.00;;;10.77;;
83495;SDS011;73431;40.794;43.836;2024-01-07T14:15:19;31.73;;;14.20;;
83495;SDS011;73431;40.794;43.836;2024-01-07T14:17:47;34.40;;;16.40;;
83495;SDS011;73431;40.794;43.836;2024-01-07T14:20:16;41.20;;;21.10;;
83495;SDS011;73431;40.794;43.836;2024-01-07T14:22:43;42.45;;;17.23;;
83495;SDS011;73431;40.794;43.836;2024-01-07T14:25:11;42.03;;;19.55;;
83495;SDS011;73431;40.794;43.836;2024-01-07T14:27:41;45.05;;;19.08;;
83495;SDS011;73431;40.794;43.836;2024-01-07T14:30:10;30.55;;;13.68;;
83495;SDS011;73431;40.794;43.836;2024-01-07T14:35:11;50.78;;;24.35;;
83495;SDS011;73431;40.794;43.836;2024-01-07T14:37:40;35.35;;;18.42;;
83495;SDS011;73431;40.794;43.836;2024-01-07T14:42:36;55.97;;;27.05;;
83495;SDS011;73431;40.794;43.836;2024-01-07T14:45:04;61.65;;;28.13;;
83495;SDS011;73431;40.794;43.836;2024-01-07T14:47:32;127.57;;;61.25;;
83495;SDS011;73431;40.794;43.836;2024-01-07T14:50:00;51.35;;;26.70;;
83495;SDS011;73431;40.794;43.836;2024-01-07T14:52:33;73.57;;;29.63;;
83495;SDS011;73431;40.794;43.836;2024-01-07T14:55:01;48.03;;;25.60;;
83495;SDS011;73431;40.794;43.836;2024-01-07T14:57:29;48.60;;;25.00;;
83495;SDS011;73431;40.794;43.836;2024-01-07T14:59:58;79.53;;;35.83;;
83495;SDS011;73431;40.794;43.836;2024-01-07T15:02:26;62.65;;;27.67;;
83495;SDS011;73431;40.794;43.836;2024-01-07T15:04:53;50.92;;;25.65;;
83495;SDS011;73431;40.794;43.836;2024-01-07T15:09:49;49.63;;;24.83;;
83495;SDS011;73431;40.794;43.836;2024-01-07T15:12:17;43.75;;;20.05;;
83495;SDS011;73431;40.794;43.836;2024-01-07T15:14:46;30.98;;;17.33;;
83495;SDS011;73431;40.794;43.836;2024-01-07T15:17:14;43.08;;;17.90;;